createdAt,value
2018-05-31T07:22:13.774Z,63.90
2018-05-31T07:22:37.448Z,63.00
2018-05-31T07:23:00.705Z,62.90
2018-05-31T07:23:24.037Z,62.80
2018-05-31T07:23:47.490Z,62.80
2018-05-31T07:24:10.879Z,62.80
2018-05-31T07:24:34.299Z,62.70
2018-05-31T07:24:57.650Z,62.70
2018-05-31T07:25:20.827Z,62.70
2018-05-31T07:25:44.136Z,62.60
2018-05-31T07:26:07.297Z,62.60
2018-05-31T07:26:30.625Z,62.60
2018-05-31T07:26:53.992Z,62.80
2018-05-31T07:27:17.467Z,62.90
2018-05-31T07:27:40.665Z,62.70
2018-05-31T07:28:04.105Z,62.80
2018-05-31T07:28:27.366Z,62.80
2018-05-31T07:28:51.005Z,62.70
2018-05-31T07:29:14.202Z,62.70
2018-05-31T07:29:37.678Z,62.70
2018-05-31T07:30:01.866Z,62.70
2018-05-31T07:30:25.332Z,62.70
2018-05-31T07:30:48.688Z,62.60
2018-05-31T07:31:12.025Z,62.60
2018-05-31T07:31:35.373Z,62.60
2018-05-31T07:31:58.694Z,62.60
2018-05-31T07:32:22.154Z,62.60
2018-05-31T07:32:45.501Z,62.60
2018-05-31T07:33:08.767Z,62.60
2018-05-31T07:33:32.299Z,62.60
2018-05-31T07:33:55.748Z,62.60
2018-05-31T07:34:19.300Z,62.70
2018-05-31T07:34:42.647Z,62.70
2018-05-31T07:35:06.004Z,62.70
2018-05-31T07:35:29.255Z,62.60
2018-05-31T07:35:52.579Z,62.60
2018-05-31T07:36:15.975Z,62.70
2018-05-31T07:36:39.383Z,62.70
2018-05-31T07:37:02.733Z,62.70
2018-05-31T07:37:26.078Z,62.70
2018-05-31T07:37:49.426Z,62.80
2018-05-31T07:38:12.686Z,62.70
2018-05-31T07:38:35.911Z,62.70
2018-05-31T07:38:59.181Z,62.80
2018-05-31T07:39:22.614Z,62.80
2018-05-31T07:39:46.075Z,62.80
2018-05-31T07:40:09.508Z,63.00
2018-05-31T07:40:32.873Z,62.80
2018-05-31T07:40:56.342Z,62.80
2018-05-31T07:41:19.610Z,62.70
2018-05-31T07:41:42.817Z,62.70
2018-05-31T07:42:06.250Z,62.70
2018-05-31T07:42:29.592Z,62.70
2018-05-31T07:42:52.811Z,62.70
2018-05-31T07:43:16.082Z,62.70
2018-05-31T07:43:39.430Z,62.70
2018-05-31T07:44:02.980Z,62.80
2018-05-31T07:44:26.399Z,62.80
2018-05-31T07:44:49.675Z,62.80
2018-05-31T07:45:13.022Z,62.80
2018-05-31T07:45:36.372Z,62.80
2018-05-31T07:45:59.718Z,62.90
2018-05-31T07:46:22.885Z,63.40
2018-05-31T07:46:46.412Z,62.80
2018-05-31T07:47:09.672Z,62.80
2018-05-31T07:47:33.106Z,62.80
2018-05-31T07:47:56.492Z,62.80
2018-05-31T07:48:20.629Z,62.90
2018-05-31T07:48:44.172Z,62.80
2018-05-31T07:49:07.526Z,62.90
2018-05-31T07:49:30.865Z,62.90
2018-05-31T07:49:54.120Z,62.80
2018-05-31T07:50:17.560Z,62.80
2018-05-31T07:50:40.925Z,62.90
2018-05-31T07:51:04.459Z,63.00
2018-05-31T07:51:27.721Z,63.00
2018-05-31T07:51:51.074Z,62.90
2018-05-31T07:52:14.501Z,62.90
2018-05-31T07:52:37.851Z,62.80
2018-05-31T07:53:01.103Z,62.90
2018-05-31T07:53:24.338Z,62.90
2018-05-31T07:53:47.924Z,62.90
2018-05-31T07:54:11.122Z,62.90
2018-05-31T07:54:35.529Z,62.90
2018-05-31T07:54:59.069Z,62.90
2018-05-31T07:55:22.481Z,62.90
2018-05-31T07:55:46.387Z,62.90
2018-05-31T07:56:10.218Z,62.30
2018-05-31T07:56:34.477Z,62.80
2018-05-31T07:56:58.986Z,62.80
2018-05-31T07:57:22.521Z,62.80
2018-05-31T07:57:45.703Z,62.70
2018-05-31T07:58:09.083Z,62.70
2018-05-31T07:58:32.409Z,62.70
2018-05-31T07:58:55.817Z,62.70
2018-05-31T07:59:19.271Z,62.60
2018-05-31T07:59:42.487Z,62.70
2018-05-31T08:00:05.949Z,62.60
2018-05-31T08:00:29.199Z,62.60
2018-05-31T08:00:52.570Z,62.60
2018-05-31T08:01:15.803Z,62.60
2018-05-31T08:01:39.252Z,62.60
2018-05-31T08:02:02.585Z,62.60
2018-05-31T08:02:26.044Z,62.70
2018-05-31T08:02:49.383Z,62.70
2018-05-31T08:03:12.730Z,62.70
2018-05-31T08:03:36.080Z,62.70
2018-05-31T08:03:59.428Z,62.70
2018-05-31T08:04:22.772Z,62.80
2018-05-31T08:04:46.024Z,62.70
2018-05-31T08:05:09.383Z,62.70
2018-05-31T08:05:32.691Z,62.70
2018-05-31T08:05:56.088Z,62.80
2018-05-31T08:06:19.624Z,62.70
2018-05-31T08:06:43.119Z,62.70
2018-05-31T08:07:07.025Z,62.70
2018-05-31T08:07:30.283Z,62.70
2018-05-31T08:07:53.716Z,62.60
2018-05-31T08:08:17.063Z,62.70
2018-05-31T08:08:40.413Z,62.60
2018-05-31T08:09:03.774Z,62.70
2018-05-31T08:09:27.311Z,62.70
2018-05-31T08:09:50.606Z,62.60
2018-05-31T08:10:14.124Z,62.70
2018-05-31T08:10:37.559Z,62.70
2018-05-31T08:11:00.740Z,62.70
2018-05-31T08:11:24.252Z,62.70
2018-05-31T08:11:47.599Z,62.60
2018-05-31T08:12:10.943Z,62.70
2018-05-31T08:12:34.333Z,62.60
2018-05-31T08:12:57.613Z,62.60
2018-05-31T08:13:20.998Z,62.60
2018-05-31T08:13:44.336Z,62.70
2018-05-31T08:14:07.896Z,62.70
2018-05-31T08:14:31.150Z,62.60
2018-05-31T08:14:54.786Z,62.70
2018-05-31T08:15:18.049Z,62.60
2018-05-31T08:15:41.383Z,62.60
2018-05-31T08:16:04.623Z,62.60
2018-05-31T08:16:27.892Z,62.60
2018-05-31T08:16:51.659Z,63.60
2018-05-31T08:17:15.192Z,62.70
2018-05-31T08:17:38.537Z,62.80
2018-05-31T08:18:01.889Z,62.80
2018-05-31T08:18:25.109Z,62.70
2018-05-31T08:18:49.283Z,62.50
2018-05-31T08:19:12.632Z,62.50
2018-05-31T08:19:35.932Z,62.40
2018-05-31T08:19:59.342Z,62.50
2018-05-31T08:20:22.893Z,62.40
2018-05-31T08:20:46.276Z,62.50
2018-05-31T08:21:09.780Z,62.50
2018-05-31T08:21:33.124Z,62.40
2018-05-31T08:21:56.321Z,62.40
2018-05-31T08:22:19.522Z,62.50
2018-05-31T08:22:42.961Z,62.50
2018-05-31T08:23:06.217Z,62.50
2018-05-31T08:23:29.570Z,62.60
2018-05-31T08:23:52.797Z,62.60
2018-05-31T08:24:16.254Z,62.70
2018-05-31T08:24:39.607Z,62.70
2018-05-31T08:25:03.046Z,62.70
2018-05-31T08:25:26.393Z,62.60
2018-05-31T08:25:49.649Z,62.60
2018-05-31T08:26:12.961Z,62.60
2018-05-31T08:26:36.434Z,62.60
2018-05-31T08:26:59.779Z,62.50
2018-05-31T08:27:23.038Z,62.50
2018-05-31T08:27:46.389Z,62.40
2018-05-31T08:28:09.828Z,62.40
2018-05-31T08:28:33.091Z,62.50
2018-05-31T08:28:56.436Z,62.50
2018-05-31T08:29:19.865Z,62.40
2018-05-31T08:29:43.211Z,62.40
2018-05-31T08:30:06.411Z,62.40
2018-05-31T08:30:29.818Z,62.40
2018-05-31T08:30:53.193Z,62.50
2018-05-31T08:31:16.599Z,62.40
2018-05-31T08:31:39.969Z,62.50
2018-05-31T08:32:03.909Z,62.40
2018-05-31T08:32:27.179Z,62.50
2018-05-31T08:32:50.600Z,62.50
2018-05-31T08:33:13.950Z,62.50
2018-05-31T08:33:37.307Z,62.50
2018-05-31T08:34:00.646Z,62.50
2018-05-31T08:34:23.929Z,62.40
2018-05-31T08:34:47.341Z,62.50
2018-05-31T08:35:10.688Z,62.40
2018-05-31T08:35:34.034Z,62.40
2018-05-31T08:35:57.381Z,62.40
2018-05-31T08:36:20.641Z,62.40
2018-05-31T08:36:43.989Z,62.40
2018-05-31T08:37:07.339Z,62.30
2018-05-31T08:37:30.770Z,62.30
2018-05-31T08:37:54.046Z,62.40
2018-05-31T08:38:17.464Z,62.40
2018-05-31T08:38:40.738Z,62.40
2018-05-31T08:39:04.159Z,62.50
2018-05-31T08:39:27.412Z,62.40
2018-05-31T08:39:50.787Z,62.50
2018-05-31T08:40:14.115Z,62.50
2018-05-31T08:40:37.556Z,62.50
2018-05-31T08:41:01.100Z,62.50
2018-05-31T08:41:24.447Z,62.60
2018-05-31T08:41:47.707Z,62.50
2018-05-31T08:42:11.477Z,62.50
2018-05-31T08:42:34.819Z,62.60
2018-05-31T08:42:58.087Z,62.50
2018-05-31T08:43:21.511Z,62.60
2018-05-31T08:43:44.800Z,62.60
2018-05-31T08:44:08.214Z,62.60
2018-05-31T08:44:31.838Z,62.60
2018-05-31T08:44:55.187Z,62.50
2018-05-31T08:45:18.534Z,62.50
2018-05-31T08:45:42.616Z,62.60
2018-05-31T08:46:06.171Z,62.60
2018-05-31T08:46:29.414Z,62.60
2018-05-31T08:46:52.948Z,62.70
2018-05-31T08:47:45.824Z,62.60
2018-05-31T08:48:09.053Z,62.50
2018-05-31T08:48:32.385Z,62.50
2018-05-31T08:48:55.829Z,62.50
2018-05-31T08:49:19.380Z,62.50
2018-05-31T08:49:42.634Z,62.50
2018-05-31T08:50:05.981Z,62.50
2018-05-31T08:50:29.335Z,62.50
2018-05-31T08:50:52.974Z,62.50
2018-05-31T08:51:16.320Z,62.60
2018-05-31T08:51:39.589Z,62.60
2018-05-31T08:52:03.427Z,62.60
2018-05-31T08:52:26.774Z,62.60
2018-05-31T08:52:50.120Z,62.50
2018-05-31T08:53:13.520Z,62.60
2018-05-31T08:53:36.929Z,62.60
2018-05-31T08:54:00.280Z,62.60
2018-05-31T08:54:23.481Z,62.60
2018-05-31T08:54:46.774Z,62.60
2018-05-31T08:55:10.205Z,62.60
2018-05-31T08:55:33.386Z,62.60
2018-05-31T08:55:56.912Z,62.60
2018-05-31T08:56:20.366Z,62.70
2018-05-31T08:56:43.797Z,62.60
2018-05-31T08:57:07.144Z,62.60
2018-05-31T08:57:30.352Z,62.60
2018-05-31T08:57:53.848Z,62.70
2018-05-31T08:58:17.110Z,62.60
2018-05-31T08:58:40.448Z,62.60
2018-05-31T08:59:03.879Z,62.60
2018-05-31T08:59:27.106Z,62.70
2018-05-31T08:59:50.371Z,62.70
2018-05-31T09:00:13.723Z,62.70
2018-05-31T09:00:36.894Z,62.70
2018-05-31T09:01:00.207Z,62.70
2018-05-31T09:01:23.366Z,62.70
2018-05-31T09:01:46.815Z,62.70
2018-05-31T09:02:10.495Z,62.70
2018-05-31T09:02:34.005Z,62.70
2018-05-31T09:02:57.353Z,62.70
2018-05-31T09:03:20.549Z,62.80
2018-05-31T09:03:44.048Z,62.80
2018-05-31T09:04:07.394Z,62.70
2018-05-31T09:04:31.061Z,62.80
2018-05-31T09:04:54.504Z,62.80
2018-05-31T09:05:17.707Z,62.70
2018-05-31T09:05:40.906Z,62.70
2018-05-31T09:06:04.335Z,62.70
2018-05-31T09:06:27.948Z,62.70
2018-05-31T09:06:51.361Z,62.70
2018-05-31T09:07:14.829Z,62.70
2018-05-31T09:07:38.134Z,62.70
2018-05-31T09:08:01.482Z,62.70
2018-05-31T09:08:24.832Z,63.50
2018-05-31T09:08:48.176Z,62.70
2018-05-31T09:09:11.330Z,62.70
2018-05-31T09:09:34.665Z,62.70
2018-05-31T09:09:58.021Z,62.70
2018-05-31T09:10:21.365Z,62.70
2018-05-31T09:10:44.842Z,62.70
2018-05-31T09:11:08.171Z,62.80
2018-05-31T09:11:31.402Z,62.80
2018-05-31T09:11:54.625Z,62.80
2018-05-31T09:12:17.892Z,62.80
2018-05-31T09:12:41.146Z,62.80
2018-05-31T09:13:04.586Z,62.80
2018-05-31T09:13:28.142Z,62.80
2018-05-31T09:13:51.486Z,62.80
2018-05-31T09:14:14.752Z,62.70
2018-05-31T09:14:38.182Z,62.70
2018-05-31T09:15:01.527Z,62.70
2018-05-31T09:15:24.729Z,62.60
2018-05-31T09:15:48.634Z,62.70
2018-05-31T09:16:11.888Z,62.80
2018-05-31T09:16:35.326Z,62.70
2018-05-31T09:16:58.672Z,62.60
2018-05-31T09:17:22.005Z,62.50
2018-05-31T09:17:46.186Z,62.60
2018-05-31T09:18:09.534Z,62.60
2018-05-31T09:18:32.699Z,62.50
2018-05-31T09:18:56.355Z,62.60
2018-05-31T09:19:19.688Z,62.50
2018-05-31T09:19:42.923Z,62.40
2018-05-31T09:20:06.273Z,62.40
2018-05-31T09:20:29.527Z,62.40
2018-05-31T09:20:52.874Z,62.30
2018-05-31T09:21:16.312Z,62.40
2018-05-31T09:21:39.658Z,62.30
2018-05-31T09:22:03.675Z,62.40
2018-05-31T09:22:26.982Z,62.40
2018-05-31T09:22:50.318Z,62.40
2018-05-31T09:23:13.665Z,62.40
2018-05-31T09:23:36.874Z,62.40
2018-05-31T09:24:00.276Z,62.40
2018-05-31T09:24:23.542Z,62.30
2018-05-31T09:24:46.962Z,62.30
2018-05-31T09:25:10.402Z,62.30
2018-05-31T09:25:33.745Z,62.30
2018-05-31T09:25:57.094Z,62.30
2018-05-31T09:26:20.440Z,62.20
2018-05-31T09:26:43.702Z,62.20
2018-05-31T09:27:07.135Z,62.20
2018-05-31T09:27:30.485Z,62.20
2018-05-31T09:27:53.750Z,62.20
2018-05-31T09:28:17.092Z,63.20
2018-05-31T09:28:40.523Z,62.30
2018-05-31T09:29:03.780Z,62.30
2018-05-31T09:29:27.014Z,62.30
2018-05-31T09:29:50.365Z,62.30
2018-05-31T09:30:13.617Z,62.30
2018-05-31T09:30:36.960Z,62.30
2018-05-31T09:31:00.402Z,62.30
2018-05-31T09:31:23.683Z,62.30
2018-05-31T09:31:46.836Z,62.20
2018-05-31T09:32:10.154Z,62.20
2018-05-31T09:32:33.382Z,62.20
2018-05-31T09:32:56.729Z,62.20
2018-05-31T09:33:19.987Z,62.20
2018-05-31T09:33:43.174Z,62.20
2018-05-31T09:34:06.569Z,62.20
2018-05-31T09:34:29.774Z,62.20
2018-05-31T09:34:53.056Z,62.20
2018-05-31T09:35:16.403Z,62.20
2018-05-31T09:35:39.660Z,62.30
2018-05-31T09:36:03.021Z,62.30
2018-05-31T09:36:26.353Z,62.30
2018-05-31T09:36:49.706Z,62.30
2018-05-31T09:37:13.139Z,62.30
2018-05-31T09:37:36.486Z,62.30
2018-05-31T09:37:59.835Z,62.30
2018-05-31T09:38:23.093Z,62.30
2018-05-31T09:38:46.266Z,62.30
2018-05-31T09:39:09.674Z,62.30
2018-05-31T09:39:33.018Z,62.30
2018-05-31T09:39:56.366Z,62.30
2018-05-31T09:40:19.536Z,62.30
2018-05-31T09:40:42.766Z,62.30
2018-05-31T09:41:06.146Z,62.20
2018-05-31T09:41:29.674Z,62.30
2018-05-31T09:41:53.021Z,62.30
2018-05-31T09:42:16.270Z,62.20
2018-05-31T09:42:39.498Z,62.30
2018-05-31T09:43:02.697Z,62.30
2018-05-31T09:43:25.988Z,62.30
2018-05-31T09:43:49.428Z,62.30
2018-05-31T09:44:12.777Z,62.30
2018-05-31T09:44:36.031Z,62.50
2018-05-31T09:44:59.470Z,62.30
2018-05-31T09:45:22.817Z,62.30
2018-05-31T09:45:46.015Z,62.30
2018-05-31T09:46:09.307Z,62.40
2018-05-31T09:46:32.783Z,62.40
2018-05-31T09:46:56.206Z,62.30
2018-05-31T09:47:19.553Z,62.30
2018-05-31T09:47:42.860Z,62.30
2018-05-31T09:48:07.067Z,62.40
2018-05-31T09:48:30.419Z,62.30
2018-05-31T09:48:53.698Z,62.30
2018-05-31T09:49:17.109Z,62.30
2018-05-31T09:49:40.456Z,62.30
2018-05-31T09:50:03.721Z,62.00
2018-05-31T09:50:27.172Z,62.30
2018-05-31T09:50:50.498Z,62.30
2018-05-31T09:51:13.963Z,62.30
2018-05-31T09:51:37.195Z,62.40
2018-05-31T09:52:00.540Z,62.30
2018-05-31T09:52:23.887Z,62.30
2018-05-31T09:52:47.060Z,62.30
2018-05-31T09:53:10.584Z,62.20
2018-05-31T09:53:34.133Z,62.30
2018-05-31T09:53:57.482Z,62.30
2018-05-31T09:54:20.740Z,62.30
2018-05-31T09:54:44.179Z,62.30
2018-05-31T09:55:07.524Z,62.30
2018-05-31T09:55:30.873Z,62.30
2018-05-31T09:55:54.458Z,62.30
2018-05-31T09:56:17.678Z,62.30
2018-05-31T09:56:40.879Z,62.30
2018-05-31T09:57:04.051Z,62.30
2018-05-31T09:57:27.401Z,61.70
2018-05-31T09:57:50.749Z,62.30
2018-05-31T09:58:14.168Z,62.30
2018-05-31T09:58:37.365Z,62.20
2018-05-31T09:59:00.790Z,62.20
2018-05-31T09:59:24.137Z,62.20
2018-05-31T09:59:47.485Z,62.20
2018-05-31T10:00:10.952Z,62.20
2018-05-31T10:00:38.274Z,62.20
2018-05-31T10:01:01.460Z,62.20
2018-05-31T10:01:24.881Z,62.20
2018-05-31T10:01:48.315Z,62.20
2018-05-31T10:02:11.664Z,62.20
2018-05-31T10:02:34.845Z,62.20
2018-05-31T10:02:58.265Z,62.20
2018-05-31T10:03:21.618Z,62.20
2018-05-31T10:03:45.053Z,62.10
2018-05-31T10:04:08.607Z,62.20
2018-05-31T10:04:31.799Z,62.10
2018-05-31T10:04:55.306Z,62.20
2018-05-31T10:05:18.569Z,62.10
2018-05-31T10:05:41.914Z,62.20
2018-05-31T10:06:05.341Z,62.10
2018-05-31T10:06:28.689Z,62.20
2018-05-31T10:06:52.036Z,62.10
2018-05-31T10:07:15.300Z,62.10
2018-05-31T10:07:38.497Z,62.10
2018-05-31T10:08:01.986Z,62.10
2018-05-31T10:08:25.425Z,62.10
2018-05-31T10:08:48.772Z,62.10
2018-05-31T10:09:11.918Z,62.10
2018-05-31T10:09:35.396Z,62.10
2018-05-31T10:09:58.813Z,62.20
2018-05-31T10:10:22.100Z,62.10
2018-05-31T10:10:45.419Z,62.10
2018-05-31T10:11:09.062Z,62.10
2018-05-31T10:11:32.314Z,62.10
2018-05-31T10:11:55.673Z,62.10
2018-05-31T10:12:19.101Z,62.10
2018-05-31T10:12:42.331Z,62.10
2018-05-31T10:13:05.505Z,62.10
2018-05-31T10:13:28.941Z,62.10
2018-05-31T10:13:52.188Z,62.10
2018-05-31T10:14:15.633Z,62.10
2018-05-31T10:14:38.838Z,62.10
2018-05-31T10:15:02.329Z,62.00
2018-05-31T10:15:25.549Z,62.10
2018-05-31T10:15:48.928Z,62.10
2018-05-31T10:16:12.283Z,62.10
2018-05-31T10:16:35.545Z,62.00
2018-05-31T10:16:58.732Z,62.30
2018-05-31T10:17:21.999Z,62.20
2018-05-31T10:17:45.349Z,62.30
2018-05-31T10:18:08.606Z,63.50
2018-05-31T10:18:32.044Z,62.80
2018-05-31T10:18:55.299Z,62.60
2018-05-31T10:19:18.534Z,62.80
2018-05-31T10:19:41.880Z,63.00
2018-05-31T10:20:05.189Z,62.90
2018-05-31T10:20:28.781Z,63.10
2018-05-31T10:20:52.036Z,63.20
2018-05-31T10:21:15.680Z,63.10
2018-05-31T10:21:39.027Z,63.90
2018-05-31T10:22:02.496Z,62.90
2018-05-31T10:22:25.927Z,62.90
2018-05-31T10:22:49.389Z,62.90
2018-05-31T10:23:12.745Z,62.80
2018-05-31T10:23:36.377Z,62.90
2018-05-31T10:23:59.728Z,63.00
2018-05-31T10:24:23.072Z,62.80
2018-05-31T10:24:46.548Z,62.70
2018-05-31T10:25:09.974Z,62.90
2018-05-31T10:25:33.459Z,63.00
2018-05-31T10:25:56.635Z,62.90
2018-05-31T10:26:20.632Z,64.00
2018-05-31T10:26:44.090Z,62.80
2018-05-31T10:27:07.437Z,62.80
2018-05-31T10:27:30.842Z,62.70
2018-05-31T10:27:54.222Z,62.70
2018-05-31T10:28:17.619Z,62.50
2018-05-31T10:28:40.922Z,62.70
2018-05-31T10:29:04.356Z,62.80
2018-05-31T10:29:27.884Z,62.70
2018-05-31T10:29:51.163Z,62.70
2018-05-31T10:30:14.570Z,62.70
2018-05-31T10:30:38.268Z,62.70
2018-05-31T10:31:01.819Z,62.60
2018-05-31T10:31:25.165Z,62.70
2018-05-31T10:31:48.420Z,62.60
2018-05-31T10:32:11.803Z,62.10
2018-05-31T10:32:35.208Z,62.70
2018-05-31T10:32:58.473Z,62.70
2018-05-31T10:33:21.638Z,62.60
2018-05-31T10:33:45.249Z,62.60
2018-05-31T10:34:08.596Z,62.60
2018-05-31T10:34:31.845Z,62.50
2018-05-31T10:34:55.291Z,62.60
2018-05-31T10:35:18.551Z,62.60
2018-05-31T10:35:41.986Z,62.50
2018-05-31T10:36:05.254Z,62.60
2018-05-31T10:36:28.578Z,62.70
2018-05-31T10:36:51.947Z,62.70
2018-05-31T10:37:15.150Z,62.70
2018-05-31T10:37:40.208Z,62.90
2018-05-31T10:38:03.710Z,62.80
2018-05-31T10:38:26.983Z,62.80
2018-05-31T10:38:50.402Z,62.80
2018-05-31T10:39:13.668Z,62.80
2018-05-31T10:39:37.096Z,62.70
2018-05-31T10:40:00.444Z,62.80
2018-05-31T10:40:23.603Z,62.70
2018-05-31T10:40:47.139Z,62.70
2018-05-31T10:41:10.485Z,62.60
2018-05-31T10:41:33.833Z,62.50
2018-05-31T10:41:57.085Z,62.50
2018-05-31T10:42:20.529Z,62.50
2018-05-31T10:42:43.874Z,62.50
2018-05-31T10:43:07.424Z,62.50
2018-05-31T10:43:30.773Z,63.40
2018-05-31T10:43:54.737Z,62.40
2018-05-31T10:44:18.083Z,62.50
2018-05-31T10:44:41.430Z,62.90
2018-05-31T10:45:04.777Z,62.60
2018-05-31T10:45:28.329Z,62.50
2018-05-31T10:45:51.739Z,62.60
2018-05-31T10:46:15.232Z,62.60
2018-05-31T10:46:38.673Z,62.50
2018-05-31T10:47:02.131Z,63.40
2018-05-31T10:47:25.404Z,62.50
2018-05-31T10:47:48.823Z,62.60
2018-05-31T10:48:12.169Z,62.60
2018-05-31T10:48:35.433Z,62.60
2018-05-31T10:48:59.888Z,62.60
2018-05-31T10:49:23.237Z,62.70
2018-05-31T10:49:46.584Z,62.60
2018-05-31T10:50:10.137Z,62.70
2018-05-31T10:50:33.421Z,62.70
2018-05-31T10:50:57.444Z,62.70
2018-05-31T10:51:20.714Z,62.70
2018-05-31T10:51:44.141Z,62.70
2018-05-31T10:52:07.401Z,62.70
2018-05-31T10:52:30.832Z,62.70
2018-05-31T10:52:54.182Z,62.70
2018-05-31T10:53:17.751Z,62.70
2018-05-31T10:53:41.079Z,62.70
2018-05-31T10:54:05.246Z,62.70
2018-05-31T10:54:28.817Z,62.70
2018-05-31T10:54:52.262Z,62.70
2018-05-31T10:55:15.697Z,62.60
2018-05-31T10:55:39.044Z,62.70
2018-05-31T10:56:02.319Z,62.80
2018-05-31T10:56:25.739Z,62.70
2018-05-31T10:56:49.088Z,62.70
2018-05-31T10:57:12.755Z,62.70
2018-05-31T10:57:36.198Z,62.70
2018-05-31T10:57:59.744Z,62.70
2018-05-31T10:58:23.094Z,62.90
2018-05-31T10:58:46.437Z,62.90
2018-05-31T10:59:09.787Z,62.80
2018-05-31T10:59:33.701Z,62.70
2018-05-31T10:59:57.297Z,62.70
2018-05-31T11:00:20.849Z,62.80
2018-05-31T11:00:44.330Z,62.90
2018-05-31T11:01:12.873Z,62.90
2018-05-31T11:01:36.219Z,62.80
2018-05-31T11:02:00.505Z,62.90
2018-05-31T11:02:25.368Z,62.90
2018-05-31T11:02:49.059Z,63.00
2018-05-31T11:03:13.601Z,62.90
2018-05-31T11:03:37.058Z,63.00
2018-05-31T11:04:02.444Z,63.00
2018-05-31T11:04:26.138Z,62.80
2018-05-31T11:04:49.713Z,63.00
2018-05-31T11:05:14.070Z,63.10
2018-05-31T11:05:37.472Z,63.10
2018-05-31T11:06:01.156Z,63.10
2018-05-31T11:06:26.623Z,63.10
2018-05-31T11:06:49.883Z,63.10
2018-05-31T11:07:13.639Z,63.00
2018-05-31T11:07:37.400Z,63.10
2018-05-31T11:08:01.016Z,63.10
2018-05-31T11:08:25.118Z,63.20
2018-05-31T11:08:48.398Z,63.10
2018-05-31T11:09:11.805Z,63.10
2018-05-31T11:09:35.159Z,63.10
2018-05-31T11:09:58.592Z,63.10
2018-05-31T11:10:22.143Z,63.00
2018-05-31T11:10:45.389Z,63.00
2018-05-31T11:11:08.841Z,63.00
2018-05-31T11:11:32.097Z,63.00
2018-05-31T11:11:55.396Z,63.00
2018-05-31T11:12:18.788Z,63.00
2018-05-31T11:12:42.142Z,63.00
2018-05-31T11:13:05.370Z,63.00
2018-05-31T11:13:28.718Z,63.00
2018-05-31T11:13:52.177Z,63.00
2018-05-31T11:14:15.616Z,62.90
2018-05-31T11:14:39.169Z,63.00
2018-05-31T11:15:03.114Z,63.00
2018-05-31T11:15:26.477Z,63.00
2018-05-31T11:15:50.062Z,63.00
2018-05-31T11:16:13.581Z,63.00
2018-05-31T11:16:36.928Z,63.00
2018-05-31T11:17:00.680Z,63.00
2018-05-31T11:17:24.444Z,63.00
2018-05-31T11:17:47.995Z,62.20
2018-05-31T11:18:11.545Z,63.00
2018-05-31T11:18:35.304Z,63.00
2018-05-31T11:18:58.856Z,63.00
2018-05-31T11:19:22.225Z,63.00
2018-05-31T11:19:45.755Z,63.10
2018-05-31T11:20:09.102Z,63.00
2018-05-31T11:20:32.374Z,63.00
2018-05-31T11:20:56.246Z,63.00
2018-05-31T11:21:20.296Z,62.90
2018-05-31T11:21:43.536Z,62.90
2018-05-31T11:22:07.068Z,62.90
2018-05-31T11:22:30.415Z,62.90
2018-05-31T11:22:53.640Z,62.90
2018-05-31T11:23:17.018Z,62.90
2018-05-31T11:23:40.372Z,63.00
2018-05-31T11:24:03.528Z,62.90
2018-05-31T11:24:26.945Z,62.90
2018-05-31T11:24:50.164Z,62.90
2018-05-31T11:25:13.560Z,63.00
2018-05-31T11:25:37.623Z,63.00
2018-05-31T11:26:02.292Z,62.90
2018-05-31T11:26:26.157Z,62.80
2018-05-31T11:26:50.980Z,62.80
2018-05-31T11:27:14.956Z,62.90
2018-05-31T11:27:39.451Z,62.90
2018-05-31T11:28:04.187Z,62.90
2018-05-31T11:28:29.282Z,62.90
2018-05-31T11:28:53.892Z,62.90
2018-05-31T11:29:18.871Z,63.00
2018-05-31T11:29:43.227Z,63.00
2018-05-31T11:30:08.061Z,62.90
2018-05-31T11:30:32.189Z,62.90
2018-05-31T11:30:56.770Z,62.90
2018-05-31T11:31:21.133Z,62.90
2018-05-31T11:31:45.654Z,62.70
2018-05-31T11:32:09.924Z,62.80
2018-05-31T11:32:34.398Z,62.80
2018-05-31T11:32:57.935Z,62.90
2018-05-31T11:33:21.680Z,62.90
2018-05-31T11:33:45.026Z,62.90
2018-05-31T11:34:08.378Z,62.90
2018-05-31T11:34:31.632Z,62.90
2018-05-31T11:34:54.979Z,63.00
2018-05-31T11:35:18.214Z,63.00
2018-05-31T11:35:41.764Z,63.00
2018-05-31T11:36:05.017Z,63.00
2018-05-31T11:36:28.365Z,62.90
2018-05-31T11:36:51.714Z,62.90
2018-05-31T11:37:15.152Z,62.90
2018-05-31T11:37:38.704Z,62.90
2018-05-31T11:38:02.052Z,62.80
2018-05-31T11:38:25.398Z,62.70
2018-05-31T11:38:48.745Z,62.70
2018-05-31T11:39:12.094Z,62.80
2018-05-31T11:39:35.361Z,62.80
2018-05-31T11:39:58.575Z,62.90
2018-05-31T11:40:22.490Z,63.10
2018-05-31T11:40:45.807Z,63.00
2018-05-31T11:41:09.239Z,63.30
2018-05-31T11:41:32.588Z,63.00
2018-05-31T11:41:55.933Z,63.10
2018-05-31T11:42:19.281Z,63.00
2018-05-31T11:42:42.629Z,63.10
2018-05-31T11:43:05.976Z,63.00
2018-05-31T11:43:29.137Z,63.00
2018-05-31T11:43:52.669Z,63.10
2018-05-31T11:44:15.939Z,63.10
2018-05-31T11:44:39.365Z,63.00
2018-05-31T11:45:02.637Z,63.00
2018-05-31T11:45:25.907Z,63.00
2018-05-31T11:45:49.411Z,63.00
2018-05-31T11:46:13.163Z,63.00
2018-05-31T11:46:36.421Z,63.00
2018-05-31T11:46:59.857Z,62.90
2018-05-31T11:47:23.204Z,63.70
2018-05-31T11:47:46.557Z,62.90
2018-05-31T11:48:09.747Z,62.80
2018-05-31T11:48:33.247Z,62.80
2018-05-31T11:48:56.593Z,62.80
2018-05-31T11:49:19.742Z,62.80
2018-05-31T11:49:44.107Z,62.80
2018-05-31T11:50:07.659Z,62.70
2018-05-31T11:50:31.007Z,62.70
2018-05-31T11:50:54.673Z,62.70
2018-05-31T11:51:18.111Z,62.60
2018-05-31T11:51:41.663Z,62.60
2018-05-31T11:52:04.836Z,62.60
2018-05-31T11:52:28.358Z,62.60
2018-05-31T11:52:51.624Z,62.60
2018-05-31T11:53:14.944Z,62.90
2018-05-31T11:53:38.313Z,62.80
2018-05-31T11:54:01.747Z,62.90
2018-05-31T11:54:25.094Z,62.80
2018-05-31T11:54:48.648Z,62.70
2018-05-31T11:55:11.996Z,62.80
2018-05-31T11:55:35.252Z,62.80
2018-05-31T11:55:58.688Z,62.80
2018-05-31T11:56:21.918Z,62.70
2018-05-31T11:56:45.298Z,62.70
2018-05-31T11:57:08.935Z,62.70
2018-05-31T11:57:32.281Z,62.70
2018-05-31T11:57:55.607Z,62.80
2018-05-31T11:58:19.707Z,62.80
2018-05-31T11:58:43.144Z,62.80
2018-05-31T11:59:06.401Z,62.80
2018-05-31T11:59:29.752Z,62.60
2018-05-31T11:59:53.184Z,62.70
2018-05-31T12:00:16.785Z,62.60
2018-05-31T12:00:40.083Z,62.70
2018-05-31T12:01:03.648Z,62.60
2018-05-31T12:01:26.822Z,62.70
2018-05-31T12:01:50.330Z,62.70
2018-05-31T12:02:13.681Z,62.60
2018-05-31T12:02:37.024Z,62.60
2018-05-31T12:03:00.371Z,62.70
2018-05-31T12:03:23.596Z,62.60
2018-05-31T12:03:46.797Z,62.60
2018-05-31T12:04:10.212Z,62.70
2018-05-31T12:04:33.422Z,62.60
2018-05-31T12:04:56.695Z,62.60
2018-05-31T12:05:19.962Z,62.70
2018-05-31T12:05:43.243Z,62.70
2018-05-31T12:06:06.740Z,62.70
2018-05-31T12:06:29.943Z,62.70
2018-05-31T12:06:53.340Z,62.70
2018-05-31T12:07:16.781Z,62.80
2018-05-31T12:07:40.051Z,62.80
2018-05-31T12:08:03.380Z,62.70
2018-05-31T12:08:26.759Z,62.70
2018-05-31T12:08:50.170Z,62.70
2018-05-31T12:09:13.518Z,62.70
2018-05-31T12:09:37.079Z,62.70
2018-05-31T12:10:00.327Z,62.70
2018-05-31T12:10:23.764Z,62.70
2018-05-31T12:10:47.025Z,62.80
2018-05-31T12:11:10.459Z,62.80
2018-05-31T12:11:33.807Z,62.80
2018-05-31T12:11:57.033Z,62.80
2018-05-31T12:12:20.503Z,62.70
2018-05-31T12:12:43.962Z,62.80
2018-05-31T12:13:07.313Z,62.80
2018-05-31T12:13:30.654Z,62.80
2018-05-31T12:13:54.095Z,62.80
2018-05-31T12:14:17.442Z,62.90
2018-05-31T12:14:41.617Z,62.90
2018-05-31T12:15:06.143Z,62.90
2018-05-31T12:15:31.375Z,62.90
2018-05-31T12:15:54.725Z,62.00
2018-05-31T12:16:18.069Z,62.80
2018-05-31T12:16:41.864Z,63.70
2018-05-31T12:17:05.378Z,62.80
2018-05-31T12:17:28.745Z,62.80
2018-05-31T12:17:52.185Z,62.70
2018-05-31T12:18:15.420Z,62.80
2018-05-31T12:18:38.766Z,62.80
2018-05-31T12:19:02.114Z,62.80
2018-05-31T12:19:25.467Z,62.80
2018-05-31T12:19:48.719Z,62.90
2018-05-31T12:20:12.258Z,62.90
2018-05-31T12:20:35.624Z,63.80
2018-05-31T12:20:58.850Z,62.90
2018-05-31T12:21:22.083Z,62.90
2018-05-31T12:21:45.456Z,62.90
2018-05-31T12:22:08.792Z,62.90
2018-05-31T12:22:31.973Z,62.90
2018-05-31T12:22:55.493Z,62.80
2018-05-31T12:23:18.848Z,62.80
2018-05-31T12:23:42.896Z,62.80
2018-05-31T12:24:06.243Z,62.80
2018-05-31T12:24:29.496Z,62.80